createdAt,value
2018-10-03T00:00:06.142Z,1011.79
2018-10-03T00:00:32.273Z,1011.78
2018-10-03T00:00:58.415Z,1011.77
2018-10-03T00:01:24.551Z,1011.77
2018-10-03T00:01:50.674Z,1011.75
2018-10-03T00:02:16.811Z,1011.75
2018-10-03T00:02:42.943Z,1011.78
2018-10-03T00:03:09.075Z,1011.76
2018-10-03T00:03:35.210Z,1011.8
2018-10-03T00:04:01.350Z,1011.82
2018-10-03T00:04:27.504Z,1011.79
2018-10-03T00:04:53.657Z,1011.82
2018-10-03T00:05:19.790Z,1011.83
2018-10-03T00:05:45.922Z,1011.88
2018-10-03T00:06:12.061Z,1011.87
2018-10-03T00:06:38.191Z,1011.86
2018-10-03T00:07:04.320Z,1011.86
2018-10-03T00:07:30.448Z,1011.84
2018-10-03T00:07:56.603Z,1011.88
2018-10-03T00:08:22.739Z,1011.89
2018-10-03T00:08:48.874Z,1011.83
2018-10-03T00:09:15.035Z,1011.87
2018-10-03T00:09:41.161Z,1011.84
2018-10-03T00:10:07.311Z,1011.86
2018-10-03T00:10:33.442Z,1011.9
2018-10-03T00:10:59.598Z,1011.87
2018-10-03T00:11:25.731Z,1011.91
2018-10-03T00:11:51.868Z,1011.88
2018-10-03T00:12:18.042Z,1011.91
2018-10-03T00:12:44.178Z,1011.91
2018-10-03T00:13:10.312Z,1011.89
2018-10-03T00:13:36.445Z,1011.93
2018-10-03T00:14:02.582Z,1011.92
2018-10-03T00:14:28.715Z,1011.91
2018-10-03T00:14:54.846Z,1011.93
2018-10-03T00:15:20.978Z,1011.93
2018-10-03T00:15:47.106Z,1011.93
2018-10-03T00:16:13.235Z,1011.92
2018-10-03T00:16:39.368Z,1011.96
2018-10-03T00:17:05.528Z,1011.95
2018-10-03T00:17:31.660Z,1011.94
2018-10-03T00:17:57.786Z,1011.93
2018-10-03T00:18:23.918Z,1011.93
2018-10-03T00:18:50.079Z,1011.94
2018-10-03T00:19:16.213Z,1011.91
2018-10-03T00:19:42.348Z,1011.92
2018-10-03T00:20:08.483Z,1011.88
2018-10-03T00:20:34.610Z,1011.9
2018-10-03T00:21:00.791Z,1011.88
2018-10-03T00:21:26.955Z,1011.89
2018-10-03T00:21:53.083Z,1011.86
2018-10-03T00:22:19.216Z,1011.88
2018-10-03T00:22:45.347Z,1011.9
2018-10-03T00:23:11.521Z,1011.87
2018-10-03T00:23:37.655Z,1011.89
2018-10-03T00:24:03.789Z,1011.89
2018-10-03T00:24:29.971Z,1011.93
2018-10-03T00:24:56.097Z,1011.93
2018-10-03T00:25:22.240Z,1011.9
2018-10-03T00:25:48.392Z,1011.96
2018-10-03T00:26:14.521Z,1011.91
2018-10-03T00:26:40.659Z,1011.93
2018-10-03T00:27:06.787Z,1011.92
2018-10-03T00:27:32.920Z,1011.9
2018-10-03T00:27:59.052Z,1011.98
2018-10-03T00:28:25.186Z,1011.98
2018-10-03T00:28:51.318Z,1012
2018-10-03T00:29:17.450Z,1011.99
2018-10-03T00:29:43.614Z,1012.01
2018-10-03T00:30:09.751Z,1011.98
2018-10-03T00:30:35.908Z,1011.99
2018-10-03T00:31:02.043Z,1011.99
2018-10-03T00:31:28.175Z,1011.96
2018-10-03T00:31:54.304Z,1011.96
2018-10-03T00:32:20.439Z,1012.01
2018-10-03T00:32:46.569Z,1011.98
2018-10-03T00:33:12.700Z,1012.03
2018-10-03T00:33:38.829Z,1011.99
2018-10-03T00:34:04.967Z,1012.02
2018-10-03T00:34:31.103Z,1012
2018-10-03T00:34:57.235Z,1012
2018-10-03T00:35:23.363Z,1012.03
2018-10-03T00:35:49.502Z,1011.98
2018-10-03T00:36:15.638Z,1011.98
2018-10-03T00:36:41.794Z,1012.02
2018-10-03T00:37:07.935Z,1012.03
2018-10-03T00:37:34.364Z,1011.99
2018-10-03T00:38:00.513Z,1011.97
2018-10-03T00:38:26.646Z,1011.93
2018-10-03T00:38:52.812Z,1011.93
2018-10-03T00:39:18.935Z,1011.96
2018-10-03T00:39:45.204Z,1011.94
2018-10-03T00:40:11.348Z,1011.93
2018-10-03T00:40:37.492Z,1011.91
2018-10-03T00:41:03.655Z,1011.93
2018-10-03T00:41:29.828Z,1011.93
2018-10-03T00:41:56.054Z,1011.95
2018-10-03T00:42:22.244Z,1011.93
2018-10-03T00:42:48.461Z,1011.91
2018-10-03T00:43:14.628Z,1011.9
2018-10-03T00:43:40.779Z,1011.9
2018-10-03T00:44:06.939Z,1011.88
2018-10-03T00:44:33.072Z,1011.94
2018-10-03T00:44:59.199Z,1011.9
2018-10-03T00:45:25.336Z,1011.9
2018-10-03T00:45:51.465Z,1011.91
2018-10-03T00:46:17.631Z,1011.89
2018-10-03T00:46:43.788Z,1011.9
2018-10-03T00:47:09.947Z,1011.91
2018-10-03T00:47:36.074Z,1011.89
2018-10-03T00:48:02.212Z,1011.92
2018-10-03T00:48:28.343Z,1011.92
2018-10-03T00:48:54.477Z,1011.92
2018-10-03T00:49:20.606Z,1011.94
2018-10-03T00:49:46.764Z,1011.95
2018-10-03T00:50:12.919Z,1011.94
2018-10-03T00:50:39.052Z,1011.98
2018-10-03T00:51:05.193Z,1012.02
2018-10-03T00:51:31.342Z,1012.03
2018-10-03T00:51:57.508Z,1012.02
2018-10-03T00:52:23.639Z,1012.02
2018-10-03T00:52:49.792Z,1011.97
2018-10-03T00:53:15.926Z,1012.03
2018-10-03T00:53:42.063Z,1011.94
2018-10-03T00:54:08.196Z,1011.96
2018-10-03T00:54:34.329Z,1011.94
2018-10-03T00:55:00.453Z,1011.95
2018-10-03T00:55:26.590Z,1011.94
2018-10-03T00:55:52.724Z,1011.95
2018-10-03T00:56:18.851Z,1011.95
2018-10-03T00:56:45.017Z,1011.97
2018-10-03T00:57:11.189Z,1011.92
2018-10-03T00:57:37.325Z,1011.95
2018-10-03T00:58:03.464Z,1011.97
2018-10-03T00:58:29.635Z,1011.93
2018-10-03T00:58:55.802Z,1011.93
2018-10-03T00:59:21.915Z,1011.89
2018-10-03T00:59:48.049Z,1011.93
2018-10-03T01:00:14.207Z,1011.91
2018-10-03T01:00:40.344Z,1011.95
2018-10-03T01:01:06.499Z,1011.95
2018-10-03T01:01:32.620Z,1011.95
2018-10-03T01:01:58.754Z,1011.95
2018-10-03T01:02:24.889Z,1011.97
2018-10-03T01:02:51.022Z,1011.97
2018-10-03T01:03:17.154Z,1011.97
2018-10-03T01:03:43.308Z,1011.95
2018-10-03T01:04:09.925Z,1011.95
2018-10-03T01:04:36.062Z,1011.89
2018-10-03T01:05:02.219Z,1011.93
2018-10-03T01:05:28.350Z,1011.95
2018-10-03T01:05:54.497Z,1011.98
2018-10-03T01:06:20.659Z,1012.02
2018-10-03T01:06:46.798Z,1011.99
2018-10-03T01:07:12.919Z,1012.07
2018-10-03T01:07:39.050Z,1012.01
2018-10-03T01:08:05.231Z,1012.04
2018-10-03T01:08:31.356Z,1012
2018-10-03T01:08:58.679Z,1012.01
2018-10-03T01:09:24.842Z,1012.06
2018-10-03T01:09:50.981Z,1012.03
2018-10-03T01:10:17.124Z,1012.01
2018-10-03T01:10:43.347Z,1012.01
2018-10-03T01:11:09.464Z,1012.04
2018-10-03T01:11:36.135Z,1012.03
2018-10-03T01:12:02.733Z,1012.07
2018-10-03T01:12:30.112Z,1012.08
2018-10-03T01:12:58.274Z,1012.07
2018-10-03T01:13:25.136Z,1012.12
2018-10-03T01:13:51.919Z,1012.09
2018-10-03T01:14:18.069Z,1012.07
2018-10-03T01:14:45.147Z,1012.1
2018-10-03T01:15:11.508Z,1012.11
2018-10-03T01:15:37.920Z,1012.16
2018-10-03T01:16:04.105Z,1012.16
2018-10-03T01:16:30.225Z,1012.07
2018-10-03T01:16:56.524Z,1012.13
2018-10-03T01:17:22.987Z,1012.13
2018-10-03T01:17:49.264Z,1012.12
2018-10-03T01:18:15.416Z,1012.13
2018-10-03T01:18:41.546Z,1012.16
2018-10-03T01:19:07.822Z,1012.17
2018-10-03T01:19:34.316Z,1012.19
2018-10-03T01:20:00.546Z,1012.17
2018-10-03T01:20:27.105Z,1012.17
2018-10-03T01:20:53.343Z,1012.23
2018-10-03T01:21:19.595Z,1012.15
2018-10-03T01:21:46.074Z,1012.17
2018-10-03T01:22:12.216Z,1012.16
2018-10-03T01:22:38.744Z,1012.18
2018-10-03T01:23:05.003Z,1012.17
2018-10-03T01:23:31.350Z,1012.17
2018-10-03T01:23:57.511Z,1012.16
2018-10-03T01:24:24.192Z,1012.16
2018-10-03T01:24:50.336Z,1012.14
2018-10-03T01:25:16.970Z,1012.13
2018-10-03T01:25:43.590Z,1012.11
2018-10-03T01:26:10.683Z,1012.17
2018-10-03T01:26:37.212Z,1012.12
2018-10-03T01:27:03.396Z,1012.13
2018-10-03T01:27:29.543Z,1012.16
2018-10-03T01:27:55.875Z,1012.16
2018-10-03T01:28:23.582Z,1012.18
2018-10-03T01:28:49.678Z,1012.2
2018-10-03T01:29:16.061Z,1012.17
2018-10-03T01:29:42.692Z,1012.16
2018-10-03T01:30:09.285Z,1012.18
2018-10-03T01:30:35.569Z,1012.19
2018-10-03T01:31:02.136Z,1012.21
2018-10-03T01:31:28.508Z,1012.2
2018-10-03T01:31:55.334Z,1012.15
2018-10-03T01:32:21.439Z,1012.2
2018-10-03T01:32:47.634Z,1012.19
2018-10-03T01:33:13.791Z,1012.17
2018-10-03T01:33:40.254Z,1012.19
2018-10-03T01:34:07.073Z,1012.21
2018-10-03T01:34:33.241Z,1012.26
2018-10-03T01:34:59.637Z,1012.24
2018-10-03T01:35:25.789Z,1012.27
2018-10-03T01:35:52.092Z,1012.28
2018-10-03T01:36:18.742Z,1012.26
2018-10-03T01:36:44.963Z,1012.27
2018-10-03T01:37:11.784Z,1012.27
2018-10-03T01:37:38.334Z,1012.26
2018-10-03T01:38:04.554Z,1012.26
2018-10-03T01:38:31.196Z,1012.29
2018-10-03T01:38:57.906Z,1012.31
2018-10-03T01:39:24.268Z,1012.33
2018-10-03T01:39:50.561Z,1012.3
2018-10-03T01:40:17.305Z,1012.31
2018-10-03T01:40:43.689Z,1012.34
2018-10-03T01:41:09.810Z,1012.29
2018-10-03T01:41:35.955Z,1012.25
2018-10-03T01:42:02.148Z,1012.29
2018-10-03T01:42:28.296Z,1012.32
2018-10-03T01:42:54.433Z,1012.32
2018-10-03T01:43:20.671Z,1012.29
2018-10-03T01:43:46.806Z,1012.32
2018-10-03T01:44:13.186Z,1012.27
2018-10-03T01:44:39.587Z,1012.31
2018-10-03T01:45:06.041Z,1012.32
2018-10-03T01:45:32.213Z,1012.34
2018-10-03T01:45:58.366Z,1012.33
2018-10-03T01:46:24.543Z,1012.32
2018-10-03T01:46:50.842Z,1012.36
2018-10-03T01:47:17.007Z,1012.34
2018-10-03T01:47:43.448Z,1012.33
2018-10-03T01:48:09.522Z,1012.32
2018-10-03T01:48:35.915Z,1012.34
2018-10-03T01:49:02.328Z,1012.34
2018-10-03T01:49:28.762Z,1012.32
2018-10-03T01:49:54.882Z,1012.35
2018-10-03T01:50:21.020Z,1012.35
2018-10-03T01:50:47.167Z,1012.34
2018-10-03T01:51:13.320Z,1012.38
2018-10-03T01:51:39.450Z,1012.34
2018-10-03T01:52:05.629Z,1012.38
2018-10-03T01:52:31.766Z,1012.36
2018-10-03T01:52:57.897Z,1012.35
2018-10-03T01:53:24.027Z,1012.36
2018-10-03T01:53:50.165Z,1012.35
2018-10-03T01:54:16.305Z,1012.38
2018-10-03T01:54:42.433Z,1012.34
2018-10-03T01:55:08.563Z,1012.39
2018-10-03T01:55:34.715Z,1012.38
2018-10-03T01:56:00.853Z,1012.36
2018-10-03T01:56:26.978Z,1012.34
2018-10-03T01:56:53.136Z,1012.38
2018-10-03T01:57:19.273Z,1012.42
2018-10-03T01:57:45.422Z,1012.39
2018-10-03T01:58:11.560Z,1012.35
2018-10-03T01:58:37.688Z,1012.37
2018-10-03T01:59:03.866Z,1012.33
2018-10-03T01:59:29.999Z,1012.4
2018-10-03T01:59:56.154Z,1012.41
2018-10-03T02:00:22.317Z,1012.41
2018-10-03T02:00:48.465Z,1012.5
2018-10-03T02:01:14.599Z,1012.48
2018-10-03T02:01:40.741Z,1012.48
2018-10-03T02:02:06.871Z,1012.47
2018-10-03T02:02:33.000Z,1012.47
2018-10-03T02:02:59.138Z,1012.52
2018-10-03T02:03:25.271Z,1012.52
2018-10-03T02:03:51.404Z,1012.49
2018-10-03T02:04:17.538Z,1012.54
2018-10-03T02:04:43.672Z,1012.54
2018-10-03T02:05:09.824Z,1012.48
2018-10-03T02:05:35.959Z,1012.5
2018-10-03T02:06:02.093Z,1012.48
2018-10-03T02:06:28.251Z,1012.5
2018-10-03T02:06:54.416Z,1012.47
2018-10-03T02:07:20.552Z,1012.52
2018-10-03T02:07:46.673Z,1012.49
2018-10-03T02:08:12.797Z,1012.51
2018-10-03T02:08:38.935Z,1012.52
2018-10-03T02:09:05.070Z,1012.5
2018-10-03T02:09:31.204Z,1012.51
2018-10-03T02:09:57.329Z,1012.52
2018-10-03T02:10:23.465Z,1012.51
2018-10-03T02:10:49.600Z,1012.47
2018-10-03T02:11:15.779Z,1012.51
2018-10-03T02:11:41.940Z,1012.52
2018-10-03T02:12:08.076Z,1012.51
2018-10-03T02:12:34.209Z,1012.51
2018-10-03T02:13:00.341Z,1012.52
2018-10-03T02:13:26.468Z,1012.5
2018-10-03T02:13:52.602Z,1012.5
2018-10-03T02:14:18.760Z,1012.53
2018-10-03T02:14:44.923Z,1012.52
2018-10-03T02:15:11.069Z,1012.51
2018-10-03T02:15:37.207Z,1012.52
2018-10-03T02:16:03.360Z,1012.54
2018-10-03T02:16:29.494Z,1012.56
2018-10-03T02:16:55.632Z,1012.55
2018-10-03T02:17:21.777Z,1012.54
2018-10-03T02:17:47.917Z,1012.55
2018-10-03T02:18:14.135Z,1012.53
2018-10-03T02:18:40.269Z,1012.55
2018-10-03T02:19:06.419Z,1012.55
2018-10-03T02:19:32.559Z,1012.54
2018-10-03T02:19:58.689Z,1012.52
2018-10-03T02:20:24.844Z,1012.56
2018-10-03T02:20:50.978Z,1012.57
2018-10-03T02:21:17.128Z,1012.57
2018-10-03T02:21:43.248Z,1012.55
2018-10-03T02:22:09.377Z,1012.54
2018-10-03T02:22:35.567Z,1012.53
2018-10-03T02:23:01.688Z,1012.54
2018-10-03T02:23:27.823Z,1012.52
2018-10-03T02:23:53.956Z,1012.53
2018-10-03T02:24:20.093Z,1012.57
2018-10-03T02:24:46.252Z,1012.58
2018-10-03T02:25:12.411Z,1012.54
2018-10-03T02:25:38.546Z,1012.55
2018-10-03T02:26:04.705Z,1012.57
2018-10-03T02:26:30.835Z,1012.58
2018-10-03T02:26:56.972Z,1012.52
2018-10-03T02:27:23.114Z,1012.59
2018-10-03T02:27:49.238Z,1012.61
2018-10-03T02:28:15.379Z,1012.62
2018-10-03T02:28:41.560Z,1012.64
2018-10-03T02:29:07.693Z,1012.63
2018-10-03T02:29:33.851Z,1012.65
2018-10-03T02:30:00.047Z,1012.62
2018-10-03T02:30:26.208Z,1012.62
2018-10-03T02:30:52.329Z,1012.61
2018-10-03T02:31:18.464Z,1012.62
2018-10-03T02:31:44.619Z,1012.64
2018-10-03T02:32:10.790Z,1012.62
2018-10-03T02:32:36.989Z,1012.62
2018-10-03T02:33:03.156Z,1012.59
2018-10-03T02:33:29.319Z,1012.61
2018-10-03T02:33:55.452Z,1012.63
2018-10-03T02:34:21.661Z,1012.59
2018-10-03T02:34:47.810Z,1012.61
2018-10-03T02:35:13.933Z,1012.62
2018-10-03T02:35:40.074Z,1012.66
2018-10-03T02:36:06.245Z,1012.61
2018-10-03T02:36:32.403Z,1012.65
2018-10-03T02:36:58.579Z,1012.68
2018-10-03T02:37:24.756Z,1012.68
2018-10-03T02:37:50.910Z,1012.67
2018-10-03T02:38:17.043Z,1012.66
2018-10-03T02:38:43.176Z,1012.68
2018-10-03T02:39:09.316Z,1012.68
2018-10-03T02:39:35.491Z,1012.68
2018-10-03T02:40:01.648Z,1012.7
2018-10-03T02:40:27.802Z,1012.66
2018-10-03T02:40:53.953Z,1012.7
2018-10-03T02:41:20.123Z,1012.64
2018-10-03T02:41:46.310Z,1012.69
2018-10-03T02:42:12.444Z,1012.67
2018-10-03T02:42:38.602Z,1012.68
2018-10-03T02:43:04.746Z,1012.66
2018-10-03T02:43:30.911Z,1012.65
2018-10-03T02:43:57.037Z,1012.62
2018-10-03T02:44:23.219Z,1012.66
2018-10-03T02:44:49.382Z,1012.64
2018-10-03T02:45:15.540Z,1012.65
2018-10-03T02:45:41.676Z,1012.65
2018-10-03T02:46:07.830Z,1012.61
2018-10-03T02:46:33.975Z,1012.66
2018-10-03T02:47:00.145Z,1012.7
2018-10-03T02:47:26.312Z,1012.7
2018-10-03T02:47:52.449Z,1012.71
2018-10-03T02:48:18.606Z,1012.72
2018-10-03T02:48:44.762Z,1012.68
2018-10-03T02:49:10.898Z,1012.72
2018-10-03T02:49:37.052Z,1012.69
2018-10-03T02:50:03.187Z,1012.67
2018-10-03T02:50:29.340Z,1012.65
2018-10-03T02:50:55.504Z,1012.64
2018-10-03T02:51:21.699Z,1012.68
2018-10-03T02:51:47.831Z,1012.66
2018-10-03T02:52:13.968Z,1012.66
2018-10-03T02:52:40.129Z,1012.65
2018-10-03T02:53:06.261Z,1012.66
2018-10-03T02:53:32.391Z,1012.68
2018-10-03T02:53:58.542Z,1012.66
2018-10-03T02:54:24.675Z,1012.69
2018-10-03T02:54:50.830Z,1012.69
2018-10-03T02:55:17.035Z,1012.64
2018-10-03T02:55:43.153Z,1012.66
2018-10-03T02:56:09.289Z,1012.65
2018-10-03T02:56:35.425Z,1012.66
2018-10-03T02:57:01.573Z,1012.66
2018-10-03T02:57:27.739Z,1012.68
2018-10-03T02:57:53.860Z,1012.66
2018-10-03T02:58:20.014Z,1012.65
2018-10-03T02:58:46.149Z,1012.67
2018-10-03T02:59:12.303Z,1012.71
2018-10-03T02:59:38.440Z,1012.65
2018-10-03T03:00:04.591Z,1012.67
2018-10-03T03:00:30.723Z,1012.67
2018-10-03T03:00:56.884Z,1012.67
2018-10-03T03:01:23.094Z,1012.75
2018-10-03T03:01:49.366Z,1012.72
2018-10-03T03:02:15.395Z,1012.74
2018-10-03T03:02:41.557Z,1012.69
2018-10-03T03:03:07.686Z,1012.74
2018-10-03T03:03:33.825Z,1012.77
2018-10-03T03:03:59.987Z,1012.72
2018-10-03T03:04:26.119Z,1012.74
2018-10-03T03:04:52.257Z,1012.73
2018-10-03T03:05:18.393Z,1012.76
2018-10-03T03:05:44.576Z,1012.71
2018-10-03T03:06:10.703Z,1012.71
2018-10-03T03:06:36.840Z,1012.77
2018-10-03T03:07:02.969Z,1012.77
2018-10-03T03:07:29.151Z,1012.76
2018-10-03T03:07:55.314Z,1012.76
2018-10-03T03:08:21.502Z,1012.77
2018-10-03T03:08:47.635Z,1012.79
2018-10-03T03:09:13.741Z,1012.78
2018-10-03T03:09:39.900Z,1012.81
2018-10-03T03:10:06.054Z,1012.82
2018-10-03T03:10:32.209Z,1012.81
2018-10-03T03:10:58.404Z,1012.84
2018-10-03T03:11:24.533Z,1012.86
2018-10-03T03:11:50.717Z,1012.86
2018-10-03T03:12:16.924Z,1012.85
2018-10-03T03:12:43.065Z,1012.83
2018-10-03T03:13:09.191Z,1012.88
2018-10-03T03:13:35.337Z,1012.89
2018-10-03T03:14:01.474Z,1012.85
2018-10-03T03:14:27.632Z,1012.87
2018-10-03T03:14:53.787Z,1012.84
2018-10-03T03:15:19.923Z,1012.83
2018-10-03T03:15:46.074Z,1012.86
2018-10-03T03:16:12.207Z,1012.89
2018-10-03T03:16:38.366Z,1012.87
2018-10-03T03:17:04.496Z,1012.87
2018-10-03T03:17:30.629Z,1012.88
2018-10-03T03:17:56.782Z,1012.86
2018-10-03T03:18:22.918Z,1012.88
2018-10-03T03:18:49.047Z,1012.89
2018-10-03T03:19:15.205Z,1012.89
2018-10-03T03:19:41.339Z,1012.85
2018-10-03T03:20:07.502Z,1012.86
2018-10-03T03:20:33.654Z,1012.88
2018-10-03T03:20:59.806Z,1012.89
2018-10-03T03:21:25.979Z,1012.88
2018-10-03T03:21:52.163Z,1012.91
2018-10-03T03:22:18.297Z,1012.89
2018-10-03T03:22:44.427Z,1012.92
2018-10-03T03:23:10.592Z,1012.9
2018-10-03T03:23:36.717Z,1012.89
2018-10-03T03:24:02.854Z,1012.92
2018-10-03T03:24:29.025Z,1012.9
2018-10-03T03:24:55.164Z,1012.9
2018-10-03T03:25:21.312Z,1012.93
2018-10-03T03:25:47.469Z,1012.91
2018-10-03T03:26:13.597Z,1012.89
2018-10-03T03:26:39.793Z,1012.92
2018-10-03T03:27:05.937Z,1012.94
2018-10-03T03:27:32.061Z,1012.91
2018-10-03T03:27:58.196Z,1012.84
2018-10-03T03:28:24.353Z,1012.86
2018-10-03T03:28:50.480Z,1012.8
2018-10-03T03:29:16.616Z,1012.81
2018-10-03T03:29:42.763Z,1012.82
2018-10-03T03:30:08.942Z,1012.84
2018-10-03T03:30:35.152Z,1012.86
2018-10-03T03:31:01.302Z,1012.87
2018-10-03T03:31:27.466Z,1012.9
2018-10-03T03:31:53.633Z,1012.86
2018-10-03T03:32:19.841Z,1012.88
2018-10-03T03:32:46.022Z,1012.88
2018-10-03T03:33:12.147Z,1012.86
2018-10-03T03:33:38.304Z,1012.9
2018-10-03T03:34:04.471Z,1012.88
2018-10-03T03:34:30.600Z,1012.9
2018-10-03T03:34:56.741Z,1012.88
2018-10-03T03:35:22.916Z,1012.92
2018-10-03T03:35:49.053Z,1012.94
2018-10-03T03:36:15.241Z,1012.93
2018-10-03T03:36:41.392Z,1012.91
2018-10-03T03:37:07.528Z,1012.95
2018-10-03T03:37:33.683Z,1012.95
2018-10-03T03:37:59.835Z,1012.92
2018-10-03T03:38:25.968Z,1012.91
2018-10-03T03:38:52.119Z,1012.88
2018-10-03T03:39:18.290Z,1012.88
2018-10-03T03:39:44.430Z,1012.89
2018-10-03T03:40:10.589Z,1012.97
2018-10-03T03:40:36.769Z,1012.92
2018-10-03T03:41:02.931Z,1012.99
2018-10-03T03:41:29.058Z,1012.9
2018-10-03T03:41:55.224Z,1012.92
2018-10-03T03:42:21.353Z,1012.93
2018-10-03T03:42:47.489Z,1012.95
2018-10-03T03:43:13.638Z,1012.94
2018-10-03T03:43:39.807Z,1012.93
2018-10-03T03:44:05.969Z,1012.92
2018-10-03T03:44:32.143Z,1012.94
2018-10-03T03:44:58.318Z,1012.92
2018-10-03T03:45:24.477Z,1012.93
2018-10-03T03:45:50.634Z,1012.9
2018-10-03T03:46:16.768Z,1012.92
2018-10-03T03:46:42.903Z,1012.91
2018-10-03T03:47:09.084Z,1012.93
2018-10-03T03:47:35.214Z,1012.89
2018-10-03T03:48:01.409Z,1012.96
2018-10-03T03:48:27.552Z,1012.92
2018-10-03T03:48:53.685Z,1012.97
2018-10-03T03:49:19.823Z,1012.99
2018-10-03T03:49:45.979Z,1012.97
2018-10-03T03:50:12.159Z,1012.98
2018-10-03T03:50:38.288Z,1012.98
2018-10-03T03:51:04.444Z,1012.98
2018-10-03T03:51:30.601Z,1012.94
2018-10-03T03:51:56.733Z,1012.97
2018-10-03T03:52:22.864Z,1012.94
2018-10-03T03:52:49.129Z,1012.92
2018-10-03T03:53:15.278Z,1012.91
2018-10-03T03:53:41.438Z,1012.9
2018-10-03T03:54:07.617Z,1012.92
2018-10-03T03:54:33.771Z,1012.89
2018-10-03T03:54:59.911Z,1012.96
2018-10-03T03:55:26.055Z,1012.92
2018-10-03T03:55:52.216Z,1012.94
2018-10-03T03:56:18.350Z,1012.92
2018-10-03T03:56:44.505Z,1012.94
2018-10-03T03:57:10.662Z,1012.96
2018-10-03T03:57:36.796Z,1012.96
2018-10-03T03:58:02.930Z,1012.97
2018-10-03T03:58:29.063Z,1013.02
2018-10-03T03:58:55.187Z,1013.02
2018-10-03T03:59:21.343Z,1013.02
2018-10-03T03:59:47.516Z,1013.04
2018-10-03T04:00:13.680Z,1013.01
2018-10-03T04:00:39.814Z,1013
2018-10-03T04:01:05.972Z,1013.03
2018-10-03T04:01:32.132Z,1013.06
2018-10-03T04:01:58.261Z,1013.07
2018-10-03T04:02:24.408Z,1013.07
2018-10-03T04:02:50.596Z,1013.05
2018-10-03T04:03:16.731Z,1013.08
2018-10-03T04:03:42.887Z,1013.11
2018-10-03T04:04:09.016Z,1013.1
2018-10-03T04:04:35.161Z,1013.13
2018-10-03T04:05:01.294Z,1013.1
2018-10-03T04:05:27.428Z,1013.13
2018-10-03T04:05:53.556Z,1013.14
2018-10-03T04:06:19.716Z,1013.12
2018-10-03T04:06:45.849Z,1013.16
2018-10-03T04:07:12.017Z,1013.19
2018-10-03T04:07:38.150Z,1013.18
2018-10-03T04:08:04.277Z,1013.18
2018-10-03T04:08:30.479Z,1013.18
2018-10-03T04:08:56.634Z,1013.17
2018-10-03T04:09:22.766Z,1013.15
2018-10-03T04:09:48.902Z,1013.23
2018-10-03T04:10:15.052Z,1013.2
2018-10-03T04:10:41.221Z,1013.22
2018-10-03T04:11:07.404Z,1013.2
2018-10-03T04:11:33.583Z,1013.17
2018-10-03T04:11:59.711Z,1013.2
2018-10-03T04:12:25.865Z,1013.21
2018-10-03T04:12:52.003Z,1013.2
2018-10-03T04:13:18.131Z,1013.22
2018-10-03T04:13:44.290Z,1013.25
2018-10-03T04:14:10.440Z,1013.22
2018-10-03T04:14:36.575Z,1013.24
2018-10-03T04:15:02.706Z,1013.25
2018-10-03T04:15:28.842Z,1013.3
2018-10-03T04:15:54.996Z,1013.29
2018-10-03T04:16:21.131Z,1013.31
2018-10-03T04:16:47.258Z,1013.29
2018-10-03T04:17:13.415Z,1013.31
2018-10-03T04:17:39.572Z,1013.27
2018-10-03T04:18:05.733Z,1013.34
2018-10-03T04:18:31.893Z,1013.32
2018-10-03T04:18:58.034Z,1013.31
2018-10-03T04:19:24.168Z,1013.34
2018-10-03T04:19:50.387Z,1013.33
2018-10-03T04:20:16.481Z,1013.34
2018-10-03T04:20:42.619Z,1013.36
2018-10-03T04:21:08.747Z,1013.34
2018-10-03T04:21:34.886Z,1013.35
2018-10-03T04:22:01.016Z,1013.34
2018-10-03T04:22:27.151Z,1013.38
2018-10-03T04:22:53.306Z,1013.41
2018-10-03T04:23:19.468Z,1013.37
2018-10-03T04:23:45.593Z,1013.38
2018-10-03T04:24:11.735Z,1013.38
2018-10-03T04:24:37.868Z,1013.39
2018-10-03T04:25:04.012Z,1013.41
2018-10-03T04:25:30.141Z,1013.44
2018-10-03T04:25:56.265Z,1013.42
2018-10-03T04:26:22.401Z,1013.44
2018-10-03T04:26:48.567Z,1013.44
2018-10-03T04:27:14.692Z,1013.45
2018-10-03T04:27:40.830Z,1013.44
2018-10-03T04:28:06.985Z,1013.39
2018-10-03T04:28:33.125Z,1013.45
2018-10-03T04:28:59.256Z,1013.4
2018-10-03T04:29:25.386Z,1013.48
2018-10-03T04:29:51.529Z,1013.44
2018-10-03T04:30:17.682Z,1013.48
2018-10-03T04:30:43.819Z,1013.44
2018-10-03T04:31:09.945Z,1013.41
2018-10-03T04:31:36.083Z,1013.42
2018-10-03T04:32:02.214Z,1013.4
2018-10-03T04:32:28.346Z,1013.43
2018-10-03T04:32:54.482Z,1013.42
2018-10-03T04:33:20.631Z,1013.45
2018-10-03T04:33:46.757Z,1013.46
2018-10-03T04:34:12.940Z,1013.51
2018-10-03T04:34:39.076Z,1013.48
2018-10-03T04:35:05.202Z,1013.47
2018-10-03T04:35:31.397Z,1013.53
2018-10-03T04:35:57.499Z,1013.46
2018-10-03T04:36:23.633Z,1013.49
2018-10-03T04:36:49.789Z,1013.47
2018-10-03T04:37:15.942Z,1013.47
2018-10-03T04:37:42.073Z,1013.5
2018-10-03T04:38:08.238Z,1013.5
2018-10-03T04:38:34.369Z,1013.49
2018-10-03T04:39:00.501Z,1013.53
2018-10-03T04:39:26.655Z,1013.53
2018-10-03T04:39:52.842Z,1013.52
2018-10-03T04:40:18.972Z,1013.53
2018-10-03T04:40:45.104Z,1013.56
2018-10-03T04:41:11.279Z,1013.55
2018-10-03T04:41:37.459Z,1013.57
2018-10-03T04:42:03.605Z,1013.58
2018-10-03T04:42:29.790Z,1013.6
2018-10-03T04:42:55.915Z,1013.6
2018-10-03T04:43:22.040Z,1013.58
2018-10-03T04:43:48.206Z,1013.56
2018-10-03T04:44:14.315Z,1013.55
2018-10-03T04:44:40.481Z,1013.58
2018-10-03T04:45:06.629Z,1013.56
2018-10-03T04:45:32.781Z,1013.56
2018-10-03T04:45:58.908Z,1013.56
2018-10-03T04:46:25.039Z,1013.56
2018-10-03T04:46:51.164Z,1013.57
2018-10-03T04:47:17.299Z,1013.59
2018-10-03T04:47:43.434Z,1013.63
2018-10-03T04:48:09.559Z,1013.6
2018-10-03T04:48:35.697Z,1013.64
2018-10-03T04:49:01.924Z,1013.64
2018-10-03T04:49:27.993Z,1013.63
2018-10-03T04:49:54.129Z,1013.59
2018-10-03T04:50:20.265Z,1013.64
2018-10-03T04:50:46.401Z,1013.62
2018-10-03T04:51:12.522Z,1013.64
2018-10-03T04:51:38.664Z,1013.65
2018-10-03T04:52:04.794Z,1013.71
2018-10-03T04:52:30.928Z,1013.68
2018-10-03T04:52:57.083Z,1013.67
2018-10-03T04:53:23.218Z,1013.7
2018-10-03T04:53:49.361Z,1013.69
2018-10-03T04:54:15.487Z,1013.71
2018-10-03T04:54:41.617Z,1013.69
2018-10-03T04:55:07.775Z,1013.72
2018-10-03T04:55:33.909Z,1013.69
2018-10-03T04:56:00.038Z,1013.73
2018-10-03T04:56:26.201Z,1013.76
2018-10-03T04:56:52.331Z,1013.74
2018-10-03T04:57:18.460Z,1013.72
2018-10-03T04:57:44.594Z,1013.69
2018-10-03T04:58:10.724Z,1013.69
2018-10-03T04:58:36.887Z,1013.71
2018-10-03T04:59:03.054Z,1013.68
2018-10-03T04:59:29.180Z,1013.68
2018-10-03T04:59:55.319Z,1013.66
2018-10-03T05:00:21.453Z,1013.68
2018-10-03T05:00:47.583Z,1013.66
2018-10-03T05:01:13.715Z,1013.64
2018-10-03T05:01:39.871Z,1013.65
2018-10-03T05:02:06.007Z,1013.65
2018-10-03T05:02:32.137Z,1013.66
2018-10-03T05:02:58.303Z,1013.67
2018-10-03T05:03:24.434Z,1013.64
2018-10-03T05:03:50.567Z,1013.6
2018-10-03T05:04:16.697Z,1013.65
2018-10-03T05:04:42.831Z,1013.64
2018-10-03T05:05:08.970Z,1013.66
2018-10-03T05:05:35.097Z,1013.64
2018-10-03T05:06:01.229Z,1013.67
2018-10-03T05:06:27.390Z,1013.66
2018-10-03T05:06:53.590Z,1013.64
2018-10-03T05:07:19.669Z,1013.7
2018-10-03T05:07:45.801Z,1013.69
2018-10-03T05:08:11.945Z,1013.73
2018-10-03T05:08:38.078Z,1013.7
2018-10-03T05:09:04.206Z,1013.69
2018-10-03T05:09:30.337Z,1013.73
2018-10-03T05:09:56.496Z,1013.72
2018-10-03T05:10:22.662Z,1013.71
2018-10-03T05:10:48.804Z,1013.75
2018-10-03T05:11:14.969Z,1013.76
2018-10-03T05:11:41.068Z,1013.81
2018-10-03T05:12:07.210Z,1013.8
2018-10-03T05:12:33.383Z,1013.83
2018-10-03T05:12:59.519Z,1013.79
2018-10-03T05:13:25.658Z,1013.8
2018-10-03T05:13:51.795Z,1013.83
2018-10-03T05:14:17.930Z,1013.84
2018-10-03T05:14:44.060Z,1013.83
2018-10-03T05:15:10.214Z,1013.85
2018-10-03T05:15:36.343Z,1013.88
2018-10-03T05:16:02.481Z,1013.91
2018-10-03T05:16:28.641Z,1013.89
2018-10-03T05:16:54.773Z,1013.9
2018-10-03T05:17:20.904Z,1013.89
2018-10-03T05:17:47.040Z,1013.9